createdAt,value
2019-04-16T00:02:19.500Z,87.90
2019-04-16T00:05:02.737Z,88.30
2019-04-16T00:07:43.031Z,88.30
2019-04-16T00:10:17.007Z,88.30
2019-04-16T00:12:56.777Z,88.50
2019-04-16T00:15:26.146Z,88.30
2019-04-16T00:17:55.476Z,87.90
2019-04-16T00:20:24.818Z,88.10
2019-04-16T00:22:55.806Z,88.50
2019-04-16T00:25:25.158Z,88.30
2019-04-16T00:27:54.583Z,88.70
2019-04-16T00:30:25.976Z,88.50
2019-04-16T00:32:55.005Z,88.80
2019-04-16T00:35:24.339Z,88.40
2019-04-16T00:37:53.673Z,88.70
2019-04-16T00:40:26.352Z,88.80
2019-04-16T00:42:54.083Z,88.70
2019-04-16T00:45:23.436Z,88.90
2019-04-16T00:47:52.768Z,89.50
2019-04-16T00:50:22.101Z,89.50
2019-04-16T00:52:51.444Z,89.40
2019-04-16T00:55:20.784Z,89.90
2019-04-16T00:57:50.134Z,90.00
2019-04-16T01:00:19.474Z,90.00
2019-04-16T01:02:48.815Z,90.00
2019-04-16T01:05:18.231Z,90.00
2019-04-16T01:07:47.573Z,90.10
2019-04-16T01:10:16.917Z,90.00
2019-04-16T01:12:46.239Z,90.00
2019-04-16T01:15:15.595Z,90.00
2019-04-16T01:17:44.927Z,90.10
2019-04-16T01:20:14.332Z,90.20
2019-04-16T01:22:46.621Z,90.20
2019-04-16T01:25:14.762Z,90.20
2019-04-16T01:27:45.743Z,90.50
2019-04-16T01:30:16.864Z,90.40
2019-04-16T01:32:53.601Z,90.50
2019-04-16T01:35:27.521Z,90.60
2019-04-16T01:38:14.943Z,90.40
2019-04-16T01:40:47.376Z,90.50
2019-04-16T01:43:17.455Z,90.60
2019-04-16T01:45:46.795Z,90.60
2019-04-16T01:48:16.131Z,90.90
2019-04-16T01:50:45.459Z,90.80
2019-04-16T01:53:14.827Z,90.90
2019-04-16T01:55:44.233Z,90.90
2019-04-16T01:58:14.542Z,90.80
2019-04-16T02:00:43.876Z,90.90
2019-04-16T02:03:17.540Z,90.90
2019-04-16T02:05:44.281Z,91.00
2019-04-16T02:08:13.613Z,91.10
2019-04-16T02:10:42.957Z,91.00
2019-04-16T02:13:15.208Z,91.00
2019-04-16T02:15:43.362Z,91.10
2019-04-16T02:18:12.873Z,91.00
2019-04-16T02:20:42.242Z,91.00
2019-04-16T02:23:13.504Z,91.30
2019-04-16T02:25:42.640Z,91.20
2019-04-16T02:28:11.984Z,91.30
2019-04-16T02:30:41.318Z,91.40
2019-04-16T02:33:10.868Z,91.50
2019-04-16T02:35:40.169Z,91.50
2019-04-16T02:38:12.262Z,91.50
2019-04-16T02:40:40.579Z,91.50
2019-04-16T02:43:09.926Z,91.60
2019-04-16T02:45:39.268Z,91.90
2019-04-16T02:48:15.267Z,91.70
2019-04-16T02:50:43.977Z,91.80
2019-04-16T02:53:31.314Z,91.80
2019-04-16T02:56:19.313Z,92.00
2019-04-16T02:58:53.346Z,92.10
2019-04-16T03:01:27.043Z,92.00
2019-04-16T03:04:03.763Z,92.00
2019-04-16T03:06:33.108Z,92.20
2019-04-16T03:09:05.357Z,92.10
2019-04-16T03:11:33.747Z,92.30
2019-04-16T03:14:03.091Z,92.40
2019-04-16T03:16:43.315Z,92.40
2019-04-16T03:19:20.095Z,92.40
2019-04-16T03:21:48.095Z,92.70
2019-04-16T03:24:17.429Z,92.80
2019-04-16T03:26:47.619Z,92.70
2019-04-16T03:29:17.825Z,92.70
2019-04-16T03:31:47.247Z,92.90
2019-04-16T03:34:19.059Z,93.00
2019-04-16T03:36:47.725Z,93.00
2019-04-16T03:39:17.059Z,93.00
2019-04-16T03:41:46.405Z,93.10
2019-04-16T03:44:15.745Z,93.20
2019-04-16T03:46:46.791Z,93.10
2019-04-16T03:49:16.170Z,93.30
2019-04-16T03:51:45.570Z,93.30
2019-04-16T03:54:15.262Z,93.40
2019-04-16T03:56:44.597Z,93.40
2019-04-16T03:59:13.939Z,93.40
2019-04-16T04:01:45.967Z,93.40
2019-04-16T04:04:14.348Z,93.70
2019-04-16T04:06:43.685Z,93.60
2019-04-16T04:09:13.036Z,93.50
2019-04-16T04:11:42.379Z,93.90
2019-04-16T04:14:11.721Z,93.80
2019-04-16T04:16:41.141Z,93.90
2019-04-16T04:19:14.069Z,93.90
2019-04-16T04:21:44.567Z,94.10
2019-04-16T04:24:13.921Z,94.00
2019-04-16T04:26:43.254Z,94.00
2019-04-16T04:29:12.600Z,94.10
2019-04-16T04:31:41.942Z,94.20
2019-04-16T04:34:15.763Z,94.30
2019-04-16T04:36:42.354Z,94.20
2019-04-16T04:39:15.317Z,94.30
2019-04-16T04:41:42.770Z,94.40
2019-04-16T04:44:12.125Z,94.40
2019-04-16T04:46:43.304Z,94.40
2019-04-16T04:49:12.584Z,94.60
2019-04-16T04:51:43.514Z,94.50
2019-04-16T04:54:13.042Z,94.60
2019-04-16T04:56:42.846Z,94.50
2019-04-16T04:59:12.288Z,94.50
2019-04-16T05:01:42.590Z,94.50
2019-04-16T05:04:20.448Z,94.40
2019-04-16T05:06:57.263Z,94.30
2019-04-16T05:09:29.385Z,94.40
2019-04-16T05:11:57.896Z,94.40
2019-04-16T05:14:27.238Z,94.30
2019-04-16T05:16:56.577Z,94.50
2019-04-16T05:19:25.922Z,94.30
2019-04-16T05:21:55.275Z,94.30
2019-04-16T05:24:28.927Z,94.10
2019-04-16T05:26:56.403Z,94.20
2019-04-16T05:29:25.895Z,94.10
2019-04-16T05:31:57.444Z,94.10
2019-04-16T05:34:26.324Z,94.00
2019-04-16T05:36:55.666Z,94.00
2019-04-16T05:39:28.292Z,93.90
2019-04-16T05:41:57.616Z,93.80
2019-04-16T05:44:26.958Z,93.70
2019-04-16T05:46:56.301Z,93.70
2019-04-16T05:49:26.462Z,93.60
2019-04-16T05:51:55.856Z,93.60
2019-04-16T05:54:35.688Z,93.50
2019-04-16T05:57:07.002Z,93.50
2019-04-16T05:59:36.350Z,93.30
2019-04-16T06:02:09.763Z,93.20
2019-04-16T06:04:39.114Z,93.30
2019-04-16T06:07:08.463Z,93.00
2019-04-16T06:09:37.970Z,93.00
2019-04-16T06:12:08.785Z,92.80
2019-04-16T06:14:49.742Z,92.70
2019-04-16T06:17:31.769Z,92.50
2019-04-16T06:20:02.679Z,92.50
2019-04-16T06:22:33.656Z,92.60
2019-04-16T06:25:20.791Z,92.30
2019-04-16T06:27:54.477Z,92.30
2019-04-16T06:30:33.879Z,92.00
2019-04-16T06:33:13.258Z,92.20
2019-04-16T06:35:59.519Z,92.20
2019-04-16T06:38:45.498Z,92.20
2019-04-16T06:41:16.502Z,92.00
2019-04-16T06:43:47.479Z,91.80
2019-04-16T06:46:39.384Z,91.70
2019-04-16T06:49:17.696Z,91.70
2019-04-16T06:52:01.234Z,91.50
2019-04-16T06:54:41.441Z,91.40
2019-04-16T06:57:21.528Z,91.30
2019-04-16T07:00:07.145Z,91.30
2019-04-16T07:02:50.222Z,91.10
2019-04-16T07:05:33.030Z,91.20
2019-04-16T07:08:06.510Z,91.00
2019-04-16T07:10:44.663Z,90.90
2019-04-16T07:13:14.283Z,90.90
2019-04-16T07:15:43.735Z,90.70
2019-04-16T07:18:13.082Z,90.70
2019-04-16T07:20:45.871Z,90.80
2019-04-16T07:23:13.682Z,90.50
2019-04-16T07:25:44.235Z,90.30
2019-04-16T07:28:25.789Z,90.20
2019-04-16T07:31:14.715Z,90.00
2019-04-16T07:33:53.691Z,89.70
2019-04-16T07:36:42.671Z,88.90
2019-04-16T07:39:29.599Z,89.10
2019-04-16T07:42:10.721Z,88.60
2019-04-16T07:44:56.368Z,88.00
2019-04-16T07:47:43.619Z,88.00
2019-04-16T07:50:32.414Z,87.30
2019-04-16T07:53:19.603Z,87.60
2019-04-16T07:55:59.346Z,87.10
2019-04-16T07:58:28.693Z,86.60
2019-04-16T08:00:58.113Z,85.90
2019-04-16T08:03:27.639Z,85.30
2019-04-16T08:05:57.084Z,85.50
2019-04-16T08:08:26.445Z,85.30
2019-04-16T08:10:56.101Z,84.80
2019-04-16T08:13:27.198Z,84.60
2019-04-16T08:15:57.502Z,84.40
2019-04-16T08:18:27.269Z,83.50
2019-04-16T08:21:02.274Z,83.10
2019-04-16T08:23:32.020Z,83.70
2019-04-16T08:26:04.837Z,82.40
2019-04-16T08:28:34.372Z,81.80
2019-04-16T08:31:04.185Z,81.50
2019-04-16T08:33:33.529Z,81.30
2019-04-16T08:36:03.113Z,80.90
2019-04-16T08:38:34.848Z,81.00
2019-04-16T08:41:03.790Z,80.50
2019-04-16T08:43:33.130Z,81.30
2019-04-16T08:46:02.472Z,80.30
2019-04-16T08:48:31.820Z,79.80
2019-04-16T08:51:04.280Z,80.00
2019-04-16T08:53:35.406Z,78.90
2019-04-16T08:56:03.791Z,78.20
2019-04-16T08:58:35.677Z,78.20
2019-04-16T09:01:06.026Z,78.00
2019-04-16T09:03:35.366Z,78.30
2019-04-16T09:06:04.780Z,77.00
2019-04-16T09:08:38.458Z,76.90
2019-04-16T09:11:21.798Z,76.10
2019-04-16T09:13:48.125Z,75.90
2019-04-16T09:16:17.891Z,76.20
2019-04-16T09:18:51.755Z,74.60
2019-04-16T09:21:21.099Z,75.00
2019-04-16T09:23:56.270Z,74.60
2019-04-16T09:26:33.217Z,73.80
2019-04-16T09:29:10.497Z,73.70
2019-04-16T09:31:47.012Z,72.80
2019-04-16T09:34:20.790Z,73.10
2019-04-16T09:36:51.810Z,72.70
2019-04-16T09:39:22.866Z,72.00
2019-04-16T09:41:52.445Z,73.00
2019-04-16T09:44:22.127Z,72.50
2019-04-16T09:46:52.402Z,71.70
2019-04-16T09:49:21.947Z,71.40
2019-04-16T09:51:51.310Z,71.90
2019-04-16T09:54:20.619Z,71.20
2019-04-16T09:56:49.962Z,71.10
2019-04-16T09:59:23.652Z,69.80
2019-04-16T10:01:54.645Z,70.50
2019-04-16T10:04:27.081Z,69.50
2019-04-16T10:06:56.433Z,68.50
2019-04-16T10:09:25.787Z,68.20
2019-04-16T10:11:57.227Z,68.30
2019-04-16T10:14:26.483Z,67.70
2019-04-16T10:16:55.863Z,68.00
2019-04-16T10:19:25.216Z,66.50
2019-04-16T10:21:54.834Z,66.80
2019-04-16T10:24:25.853Z,66.30
2019-04-16T10:26:59.682Z,65.90
2019-04-16T10:29:27.876Z,64.60
2019-04-16T10:31:57.251Z,63.10
2019-04-16T10:34:26.874Z,63.20
2019-04-16T10:36:56.330Z,63.90
2019-04-16T10:39:36.494Z,63.30
2019-04-16T10:42:07.729Z,62.20
2019-04-16T10:44:47.904Z,61.40
2019-04-16T10:47:19.931Z,60.60
2019-04-16T10:49:54.220Z,60.50
2019-04-16T10:52:25.208Z,60.80
2019-04-16T10:55:12.245Z,59.80
2019-04-16T10:57:43.663Z,60.50
2019-04-16T11:00:27.586Z,59.60
2019-04-16T11:03:04.750Z,58.60
2019-04-16T11:05:41.685Z,56.90
2019-04-16T11:08:11.922Z,55.80
2019-04-16T11:10:41.415Z,55.80
2019-04-16T11:13:12.438Z,55.50
2019-04-16T11:15:42.123Z,55.20
2019-04-16T11:18:11.721Z,55.40
2019-04-16T11:20:41.132Z,55.00
2019-04-16T11:23:10.482Z,54.60
2019-04-16T11:25:39.823Z,54.70
2019-04-16T11:28:09.483Z,54.00
2019-04-16T11:30:40.472Z,53.80
2019-04-16T11:33:09.864Z,53.60
2019-04-16T11:35:39.169Z,53.00
2019-04-16T11:38:08.521Z,51.80
2019-04-16T11:40:40.941Z,51.60
2019-04-16T11:43:09.032Z,51.00
2019-04-16T11:45:38.347Z,51.00
2019-04-16T11:48:07.738Z,51.30
2019-04-16T11:50:37.117Z,51.00
2019-04-16T11:53:06.506Z,50.40
2019-04-16T11:55:35.828Z,49.60
2019-04-16T11:58:06.979Z,49.20
2019-04-16T12:00:54.266Z,49.10
2019-04-16T12:03:25.377Z,48.20
2019-04-16T12:05:56.384Z,48.30
2019-04-16T12:08:42.636Z,46.90
2019-04-16T12:11:19.772Z,47.00
2019-04-16T12:13:51.043Z,46.00
2019-04-16T12:16:24.391Z,45.90
2019-04-16T12:18:54.882Z,45.50
2019-04-16T12:21:40.842Z,44.80
2019-04-16T12:24:29.841Z,44.60
2019-04-16T12:27:03.377Z,43.20
2019-04-16T12:29:41.217Z,43.60
2019-04-16T12:32:12.154Z,43.20
2019-04-16T12:34:51.149Z,42.00
2019-04-16T12:37:38.318Z,42.00
2019-04-16T12:40:12.525Z,42.20
2019-04-16T12:42:43.500Z,42.30
2019-04-16T12:45:21.714Z,42.00
2019-04-16T12:47:59.227Z,42.10
2019-04-16T12:50:36.177Z,42.00
2019-04-16T12:53:16.430Z,42.40
2019-04-16T12:55:50.341Z,42.00
2019-04-16T12:58:21.346Z,42.10
2019-04-16T13:01:04.731Z,42.20
2019-04-16T13:03:36.264Z,42.40
2019-04-16T13:06:13.346Z,42.40
2019-04-16T13:09:00.396Z,42.70
2019-04-16T13:11:35.004Z,42.90
2019-04-16T13:14:16.248Z,42.00
2019-04-16T13:16:53.138Z,42.50
2019-04-16T13:19:39.347Z,42.40
2019-04-16T13:22:10.329Z,42.20
2019-04-16T13:24:41.331Z,42.00
2019-04-16T13:27:18.809Z,43.00
2019-04-16T13:29:48.163Z,42.50
2019-04-16T13:32:17.521Z,42.60
2019-04-16T13:34:46.869Z,43.00
2019-04-16T13:37:16.217Z,42.50
2019-04-16T13:39:50.004Z,42.50
2019-04-16T13:42:19.329Z,42.30
2019-04-16T13:45:16.939Z,42.30
2019-04-16T13:47:38.221Z,42.60
2019-04-16T13:50:12.488Z,42.00
2019-04-16T13:52:42.006Z,42.30
2019-04-16T13:55:18.726Z,41.00
2019-04-16T13:58:02.211Z,41.60
2019-04-16T14:00:39.273Z,41.60
2019-04-16T14:03:10.270Z,42.40
2019-04-16T14:05:42.608Z,41.60
2019-04-16T14:08:10.748Z,40.90
2019-04-16T14:10:43.058Z,41.20
2019-04-16T14:13:13.479Z,40.70
2019-04-16T14:15:44.751Z,41.70
2019-04-16T14:18:13.312Z,41.40
2019-04-16T14:20:42.666Z,41.40
2019-04-16T14:23:12.023Z,41.80
2019-04-16T14:25:41.406Z,41.70
2019-04-16T14:28:10.832Z,42.00
2019-04-16T14:30:42.751Z,42.30
2019-04-16T14:33:14.397Z,42.00
2019-04-16T14:35:43.743Z,42.60
2019-04-16T14:38:14.729Z,42.60
2019-04-16T14:40:44.083Z,42.50
2019-04-16T14:43:15.065Z,42.20
2019-04-16T14:45:58.405Z,43.10
2019-04-16T14:48:19.865Z,43.30
2019-04-16T14:50:49.217Z,43.50
2019-04-16T14:53:20.206Z,43.70
2019-04-16T14:55:59.623Z,44.20
2019-04-16T14:58:23.918Z,43.70
2019-04-16T15:01:12.986Z,43.60
2019-04-16T15:03:49.769Z,44.00
2019-04-16T15:06:20.740Z,44.20
2019-04-16T15:08:51.750Z,43.70
2019-04-16T15:11:25.716Z,42.90
2019-04-16T15:13:56.829Z,43.60
2019-04-16T15:16:39.777Z,42.70
2019-04-16T15:19:27.125Z,43.20
2019-04-16T15:22:14.761Z,42.90
2019-04-16T15:24:52.019Z,43.00
2019-04-16T15:27:23.005Z,42.60
2019-04-16T15:29:56.640Z,42.50
2019-04-16T15:32:42.300Z,42.80
2019-04-16T15:35:16.154Z,42.60
2019-04-16T15:37:59.346Z,43.20
2019-04-16T15:40:39.170Z,43.50
2019-04-16T15:43:08.939Z,43.40
2019-04-16T15:45:39.932Z,43.80
2019-04-16T15:48:14.913Z,43.60
2019-04-16T15:50:52.634Z,43.80
2019-04-16T15:53:32.380Z,43.70
2019-04-16T15:56:03.375Z,43.80
2019-04-16T15:58:34.353Z,43.80
2019-04-16T16:01:05.343Z,44.60
2019-04-16T16:03:52.484Z,44.40
2019-04-16T16:06:23.475Z,44.30
2019-04-16T16:09:00.344Z,44.40
2019-04-16T16:11:31.336Z,45.20
2019-04-16T16:14:01.632Z,45.50
2019-04-16T16:16:41.509Z,45.40
2019-04-16T16:19:03.500Z,45.30
2019-04-16T16:21:32.899Z,45.10
2019-04-16T16:24:06.113Z,44.90
2019-04-16T16:26:33.320Z,45.40
2019-04-16T16:29:02.823Z,45.40
2019-04-16T16:31:35.472Z,45.70
2019-04-16T16:34:03.250Z,46.80
2019-04-16T16:36:36.244Z,46.00
2019-04-16T16:39:05.809Z,46.10
2019-04-16T16:41:35.160Z,46.50
2019-04-16T16:44:04.644Z,45.70
2019-04-16T16:46:55.937Z,46.30
2019-04-16T16:49:15.770Z,47.00
2019-04-16T16:51:49.464Z,47.40
2019-04-16T16:54:20.453Z,47.30
2019-04-16T16:57:02.070Z,48.00
2019-04-16T16:59:46.649Z,47.60
2019-04-16T17:02:29.995Z,48.60
2019-04-16T17:05:00.533Z,48.60
2019-04-16T17:07:29.881Z,48.80
2019-04-16T17:09:59.283Z,49.00
2019-04-16T17:12:28.595Z,49.40
2019-04-16T17:14:57.955Z,49.60
2019-04-16T17:17:27.301Z,50.10
2019-04-16T17:19:56.654Z,50.10
2019-04-16T17:22:26.000Z,50.50
2019-04-16T17:24:55.349Z,50.70
2019-04-16T17:27:24.716Z,50.90
2019-04-16T17:29:55.090Z,51.30
2019-04-16T17:32:24.619Z,51.10
2019-04-16T17:34:53.962Z,51.50
2019-04-16T17:37:27.784Z,51.60
2019-04-16T17:39:55.920Z,51.30
2019-04-16T17:42:26.916Z,52.10
2019-04-16T17:45:14.258Z,52.00
2019-04-16T17:48:01.379Z,52.30
2019-04-16T17:50:39.309Z,52.70
2019-04-16T17:53:23.370Z,54.00
2019-04-16T17:56:03.417Z,54.10
2019-04-16T17:58:36.887Z,53.90
2019-04-16T18:01:13.760Z,54.30
2019-04-16T18:03:44.751Z,54.10
2019-04-16T18:06:18.630Z,54.50
2019-04-16T18:09:06.049Z,54.40
2019-04-16T18:11:49.036Z,55.40
2019-04-16T18:14:36.544Z,55.40
2019-04-16T18:17:07.624Z,55.40
2019-04-16T18:19:41.241Z,55.80
2019-04-16T18:22:15.878Z,56.30
2019-04-16T18:24:53.568Z,56.50
2019-04-16T18:27:33.787Z,56.70
2019-04-16T18:30:21.410Z,56.90
2019-04-16T18:33:08.630Z,57.90
2019-04-16T18:35:39.625Z,58.00
2019-04-16T18:38:22.242Z,58.30
2019-04-16T18:40:55.412Z,58.90
2019-04-16T18:43:34.937Z,58.60
2019-04-16T18:46:21.354Z,59.10
2019-04-16T18:48:54.378Z,59.10
2019-04-16T18:51:24.071Z,59.70
2019-04-16T18:53:53.665Z,60.00
2019-04-16T18:56:23.058Z,60.20
2019-04-16T18:58:52.525Z,60.20
2019-04-16T19:01:25.021Z,61.30
2019-04-16T19:03:54.730Z,61.10
2019-04-16T19:06:24.137Z,61.90
2019-04-16T19:08:53.747Z,61.80
2019-04-16T19:11:23.083Z,61.90
2019-04-16T19:13:52.431Z,62.30
2019-04-16T19:16:21.775Z,62.60
2019-04-16T19:18:51.128Z,63.00
2019-04-16T19:21:20.540Z,63.00
2019-04-16T19:23:49.898Z,63.80
2019-04-16T19:26:19.344Z,63.80
2019-04-16T19:28:48.693Z,64.30
2019-04-16T19:31:22.731Z,64.70
2019-04-16T19:33:49.134Z,65.50
2019-04-16T19:36:19.804Z,66.10
2019-04-16T19:38:49.554Z,65.70
2019-04-16T19:41:23.358Z,66.80
2019-04-16T19:43:49.997Z,66.90
2019-04-16T19:46:19.344Z,67.10
2019-04-16T19:48:48.692Z,66.80
2019-04-16T19:51:19.825Z,67.80
2019-04-16T19:53:49.302Z,67.90
2019-04-16T19:56:19.649Z,67.80
2019-04-16T19:58:49.091Z,68.50
2019-04-16T20:01:18.513Z,69.30
2019-04-16T20:03:47.868Z,69.40
2019-04-16T20:06:17.218Z,69.50
2019-04-16T20:08:46.560Z,70.00
2019-04-16T20:11:20.460Z,69.80
2019-04-16T20:13:46.988Z,71.00
2019-04-16T20:16:16.399Z,70.70
2019-04-16T20:18:51.143Z,71.10
2019-04-16T20:21:17.106Z,71.30
2019-04-16T20:23:46.450Z,71.50
2019-04-16T20:26:15.814Z,71.90
2019-04-16T20:28:45.352Z,72.60
2019-04-16T20:31:16.221Z,73.30
2019-04-16T20:33:45.562Z,75.00
2019-04-16T20:36:14.908Z,74.80
2019-04-16T20:38:44.357Z,76.30
2019-04-16T20:41:18.155Z,78.40
2019-04-16T20:43:44.778Z,80.60
2019-04-16T20:46:14.137Z,83.00
2019-04-16T20:48:44.934Z,86.00
2019-04-16T20:51:14.558Z,85.40
2019-04-16T20:53:43.902Z,85.80
2019-04-16T20:56:13.247Z,86.60
2019-04-16T20:58:42.598Z,88.70
2019-04-16T21:01:12.015Z,87.60
2019-04-16T21:03:41.366Z,88.60
2019-04-16T21:06:10.987Z,89.30
2019-04-16T21:08:40.326Z,89.90
2019-04-16T21:11:09.877Z,90.00
2019-04-16T21:13:39.232Z,89.90
2019-04-16T21:16:08.753Z,90.20
2019-04-16T21:18:38.100Z,90.70
2019-04-16T21:21:07.815Z,91.00
2019-04-16T21:23:37.168Z,91.40
2019-04-16T21:26:06.520Z,91.50
2019-04-16T21:28:37.521Z,92.10
2019-04-16T21:31:12.989Z,92.10
2019-04-16T21:33:43.935Z,92.30
2019-04-16T21:36:33.823Z,92.80
2019-04-16T21:39:17.135Z,92.90
2019-04-16T21:41:43.882Z,93.30
2019-04-16T21:44:13.374Z,93.30
2019-04-16T21:46:42.654Z,93.50
2019-04-16T21:49:11.996Z,93.50
2019-04-16T21:51:59.275Z,94.00
2019-04-16T21:54:30.581Z,94.10
2019-04-16T21:57:00.168Z,94.30
2019-04-16T21:59:29.586Z,94.50
2019-04-16T22:01:59.637Z,94.60
2019-04-16T22:04:28.936Z,94.10
2019-04-16T22:06:58.297Z,94.60
2019-04-16T22:09:27.644Z,94.70
2019-04-16T22:11:57.002Z,94.80
2019-04-16T22:14:26.352Z,94.80
2019-04-16T22:16:55.997Z,94.90
2019-04-16T22:19:25.425Z,95.10
2019-04-16T22:21:54.771Z,95.40
2019-04-16T22:24:24.131Z,95.50
2019-04-16T22:26:53.473Z,95.70
2019-04-16T22:29:22.818Z,95.70
2019-04-16T22:31:52.718Z,96.10
2019-04-16T22:34:23.229Z,96.20
2019-04-16T22:36:52.572Z,96.30
2019-04-16T22:39:26.454Z,96.50
2019-04-16T22:41:58.422Z,96.50
2019-04-16T22:44:48.213Z,96.80
2019-04-16T22:47:21.933Z,96.80
2019-04-16T22:49:51.658Z,97.40
2019-04-16T22:52:22.346Z,97.10
2019-04-16T22:54:52.990Z,96.90
2019-04-16T22:57:22.525Z,96.70
2019-04-16T22:59:51.853Z,97.00
2019-04-16T23:02:22.855Z,97.20
2019-04-16T23:04:54.813Z,97.20
2019-04-16T23:07:23.293Z,97.30
2019-04-16T23:09:52.633Z,97.70
2019-04-16T23:12:27.187Z,98.50
2019-04-16T23:14:53.049Z,98.10
2019-04-16T23:17:24.042Z,98.20
2019-04-16T23:19:54.747Z,98.00
2019-04-16T23:22:24.458Z,98.10
2019-04-16T23:24:55.134Z,98.30
2019-04-16T23:27:24.903Z,98.60
2019-04-16T23:29:54.239Z,99.20
2019-04-16T23:32:27.429Z,98.90
2019-04-16T23:34:54.826Z,98.90
2019-04-16T23:37:24.170Z,99.40
2019-04-16T23:39:53.527Z,99.50
2019-04-16T23:42:22.876Z,99.90
2019-04-16T23:45:06.131Z,99.90
2019-04-16T23:47:49.390Z,99.90
2019-04-16T23:50:26.305Z,99.90
2019-04-16T23:53:00.262Z,99.90
2019-04-16T23:55:36.890Z,99.90
2019-04-16T23:58:10.899Z,99.90
